• Join FlightAware (Why Join?)
  • Login
  • US Flag 
05:26AM EDT


 

Airport Tracker/Info


-or-


 

Live Flight TrackerFlight Track Log ✈ N6711L ✈ 2013-Dec-13 ✈ KGNV - KAPF

Flight Track Log - Related Links

Times and Time Zones

All times are in EST time to prevent confusion due to time zone crossing. See the N6711L flight status page for this flight to view local times or setup timezone preferences in your user account.

Time Position Orientation Groundspeed Altitude Reporting Facility
EST Latitude Longitude Course Direction KTS MPH feet Rate Location/Type
04:04PM 29.6825 -82.2519 152° Southeast 110 127 1,000  Level Jacksonville Center
04:06PM 29.6553 -82.2353 152° Southeast 116 133 2,700 1,200 Climbing Jacksonville Center
04:07PM 29.6239 -82.2356 180° South 126 145 3,600 900 Climbing Jacksonville Center
04:08PM 29.5864 -82.2311 174° South 133 153 4,500 960 Climbing Jacksonville Center
04:09PM 29.5508 -82.2314 180° South 128 147 5,600 900 Climbing Jacksonville Center
04:10PM 29.5092 -82.2292 177° South 140 161 6,400 780 Climbing Jacksonville Center
04:11PM 29.4672 -82.2269 177° South 146 168 7,300 360 Climbing Jacksonville Center
04:12PM 29.4256 -82.2272 180° South 151 174 7,200 -60 Descending Jacksonville Center
04:13PM 29.3797 -82.2300 183° South 162 186 7,200  Level Jacksonville Center
04:14PM 29.3336 -82.2303 180° South 169 194 7,200  Level Jacksonville Center
04:15PM 29.2897 -82.2283 178° South 170 196 7,200  Level Jacksonville Center
04:16PM 29.2397 -82.2261 178° South 168 193 7,200  Level Jacksonville Center
04:17PM 29.1939 -82.2289 183° South 165 190 7,200  Level Jacksonville Center
04:18PM 29.1436 -82.2197 171° South 167 192 7,200  Level Jacksonville Center
04:19PM 29.0978 -82.2106 170° South 166 191 7,200  Level Jacksonville Center
04:20PM 29.0517 -82.2036 172° South 166 191 7,200  Level Jacksonville Center
04:21PM 29.0078 -82.1944 170° South 166 191 7,200  Level Jacksonville Center
04:22PM 28.9556 -82.1878 174° South 165 190 7,200  Level Jacksonville Center
04:23PM 28.9075 -82.1764 168° South 167 192 7,200  Level Jacksonville Center
04:24PM 28.8553 -82.1672 171° South 167 192 7,200 -60 Level Jacksonville Center
04:26PM 28.7833 -82.1500 168° South 167 192 7,100 -60 Descending Tampa TRACON
04:27PM 28.7333 -82.1500 180° South 168 193 7,100  Level Tampa TRACON
04:28PM 28.6833 -82.1333 164° South 168 193 7,100  Level Tampa TRACON
04:29PM 28.6500 -82.1333 180° South 167 192 7,100  Level Tampa TRACON
04:30PM 28.6000 -82.1167 164° South 169 194 7,100  Level Tampa TRACON
04:31PM 28.5500 -82.1167 180° South 169 194 7,100  Level Tampa TRACON
04:32PM 28.5000 -82.1000 164° South 172 198 7,100  Level Tampa TRACON
04:33PM 28.4500 -82.1000 180° South 170 196 7,100  Level Tampa TRACON
04:34PM 28.4000 -82.0833 164° South 168 193 7,100  Level Tampa TRACON
04:35PM 28.3667 -82.0833 180° South 170 196 7,100  Level Tampa TRACON
04:36PM 28.3167 -82.0667 164° South 168 193 7,100  Level Tampa TRACON
04:37PM 28.2667 -82.0667 180° South 167 192 7,100  Level Tampa TRACON
04:38PM 28.2167 -82.0500 164° South 169 194 7,100  Level Tampa TRACON
04:39PM 28.1667 -82.0500 180° South 168 193 7,100  Level Tampa TRACON
04:40PM 28.1333 -82.0333 156° South 167 192 7,100  Level Tampa TRACON
04:41PM 28.0833 -82.0333 180° South 167 192 7,100  Level Tampa TRACON
04:43PM 27.9931 -82.0153 170° South 147 169 7,100  Level Miami Center
04:44PM 27.9475 -82.0064 170° South 157 181 7,100  Level Miami Center
04:45PM 27.9019 -81.9994 172° South 168 193 7,100  Level Miami Center
04:46PM 27.8564 -81.9903 170° South 168 193 7,100  Level Miami Center
04:47PM 27.8086 -81.9836 173° South 168 193 7,100  Level Miami Center
04:48PM 27.7672 -81.9722 166° South 173 199 7,100  Level Miami Center
04:49PM 27.7175 -81.9631 171° South 173 199 7,100  Level Miami Center
04:50PM 27.6717 -81.9586 175° South 168 193 7,100  Level Miami Center
04:51PM 27.6261 -81.9497 170° South 168 193 7,100  Level Miami Center
04:52PM 27.5869 -81.9361 163° South 173 199 7,100  Level Miami Center
04:53PM 27.5378 -81.9153 159° South 167 192 7,100  Level Miami Center
04:54PM 27.5008 -81.8925 151° Southeast 167 192 7,100  Level Miami Center
04:55PM 27.4578 -81.8697 155° Southeast 173 199 7,100  Level Miami Center
04:56PM 27.4169 -81.8444 151° Southeast 173 199 7,100  Level Miami Center
04:57PM 27.3739 -81.8214 155° Southeast 173 199 7,100  Level Miami Center
04:58PM 27.3308 -81.7986 155° Southeast 173 199 7,100  Level Miami Center
04:59PM 27.2878 -81.7758 155° Southeast 173 199 7,100  Level Miami Center
05:00PM 27.2450 -81.7506 152° Southeast 173 199 7,100  Level Miami Center
05:01PM 27.2039 -81.7278 154° Southeast 173 199 7,100  Level Miami Center
05:02PM 27.1608 -81.7050 155° Southeast 173 199 7,100  Level Miami Center
05:03PM 27.1178 -81.6800 153° Southeast 173 199 7,100  Level Miami Center
05:04PM 27.0728 -81.6572 156° South 173 199 7,100  Level Miami Center
05:05PM 27.0294 -81.6367 157° South 173 199 7,100  Level Miami Center
05:06PM 26.9842 -81.6183 160° South 178 205 7,100  Level Miami Center
05:07PM 26.9328 -81.5978 160° South 178 205 7,100  Level Miami Center
05:08PM 26.8850 -81.5842 166° South 178 205 7,100  Level Miami Center
05:09PM 26.8394 -81.5731 168° South 178 205 7,100  Level Miami Center
05:10PM 26.7939 -81.5664 173° South 178 205 7,100  Level Miami Center
05:12PM 26.7262 -81.6131 212° Southwest  Level FlightAware Approximate
05:19PM 26.4373 -81.7209 187° South  Level FlightAware Approximate
05:20PM 26.3939 -81.7271 187° South  Level FlightAware Approximate
05:21PM 26.3505 -81.7333 187° South  Level FlightAware Approximate
05:22PM 26.3071 -81.7395 187° South  Level FlightAware Approximate
05:23PM 26.2636 -81.7457 187° South  Level FlightAware Approximate
05:24PM 26.2203 -81.7526 190° South  Level FlightAware Approximate
05:25PM 26.1773 -81.7612 190° South  Level FlightAware Approximate
05:26PM 26.1500 -81.7667 190° South  Level FlightAware Approximate
05:27PM 26.1524 -81.7756 190° South  Level Estimated
05:28PM 26.1524 -81.7756 190° South  Level Estimated
05:29PM 26.1524 -81.7756 190° South  Level Estimated
05:30PM 26.1524 -81.7756 190° South  Level Estimated
05:31PM 26.1524 -81.7756 190° South  Level Estimated
05:32PM 26.1524 -81.7756 190° South  Level Estimated
05:33PM 26.1524 -81.7756 190° South  Level Estimated
05:34PM 26.1524 -81.7756 190° South  Level Estimated
05:35PM 26.1524 -81.7756 190° South  Level Estimated
05:36PM 26.1524 -81.7756 190° South  Level Estimated
05:37PM 26.1524 -81.7756 190° South  Level Estimated
05:38PM 26.1524 -81.7756 190° South  Level Estimated
05:39PM 26.1524 -81.7756 190° South  Level Estimated